createdAt,value
2023-09-12T00:02:21.123Z,94330.13
2023-09-12T00:04:47.487Z,94329.63
2023-09-12T00:07:13.855Z,94323.69
2023-09-12T00:09:40.194Z,94325.94
2023-09-12T00:12:06.754Z,94329.31
2023-09-12T00:14:33.188Z,94320.09
2023-09-12T00:16:59.639Z,94327.00
2023-09-12T00:19:26.023Z,94329.25
2023-09-12T00:21:53.818Z,94339.38
2023-09-12T00:24:20.304Z,94328.78
2023-09-12T00:26:46.664Z,94336.16
2023-09-12T00:29:12.985Z,94327.16
2023-09-12T00:31:39.380Z,94330.69
2023-09-12T00:34:05.849Z,94336.97
2023-09-12T00:36:34.274Z,94341.78
2023-09-12T00:39:00.765Z,94326.19
2023-09-12T00:41:27.143Z,94324.59
2023-09-12T00:43:53.528Z,94332.47
2023-09-12T00:46:20.039Z,94332.97
2023-09-12T00:48:46.516Z,94332.63
2023-09-12T00:51:12.937Z,94326.06
2023-09-12T00:53:39.386Z,94334.56
2023-09-12T00:56:05.727Z,94329.09
2023-09-12T00:58:32.408Z,94328.63
2023-09-12T01:00:59.626Z,94325.41
2023-09-12T01:03:26.265Z,94332.78
2023-09-12T01:05:52.682Z,94336.16
2023-09-12T01:08:19.026Z,94335.69
2023-09-12T01:10:47.173Z,94336.00
2023-09-12T01:13:14.884Z,94325.06
2023-09-12T01:15:41.789Z,94330.81
2023-09-12T01:18:08.425Z,94328.72
2023-09-12T01:20:35.158Z,94329.38
2023-09-12T01:23:16.598Z,94330.81
2023-09-12T01:25:42.962Z,94327.25
2023-09-12T01:28:10.465Z,94327.75
2023-09-12T01:30:37.071Z,94329.69
2023-09-12T01:33:03.662Z,94329.38
2023-09-12T01:35:30.068Z,94334.19
2023-09-12T01:37:56.419Z,94332.75
2023-09-12T01:40:36.039Z,94328.09
2023-09-12T01:43:02.397Z,94332.47
2023-09-12T01:45:28.798Z,94336.47
2023-09-12T01:47:55.157Z,94338.09
2023-09-12T01:50:21.480Z,94337.78
2023-09-12T01:52:47.854Z,94337.47
2023-09-12T01:55:14.287Z,94336.34
2023-09-12T01:57:40.658Z,94325.72
2023-09-12T02:00:07.389Z,94328.44
2023-09-12T02:02:33.760Z,94332.00
2023-09-12T02:05:00.089Z,94327.81
2023-09-12T02:07:26.447Z,94331.66
2023-09-12T02:09:52.785Z,94328.94
2023-09-12T02:12:19.166Z,94331.34
2023-09-12T02:14:45.523Z,94338.09
2023-09-12T02:17:11.938Z,94331.03
2023-09-12T02:19:38.301Z,94342.44
2023-09-12T02:22:04.692Z,94330.44
2023-09-12T02:24:31.053Z,94335.88
2023-09-12T02:26:57.419Z,94327.69
2023-09-12T02:29:23.752Z,94331.22
2023-09-12T02:31:50.174Z,94334.75
2023-09-12T02:34:16.531Z,94327.69
2023-09-12T02:36:42.894Z,94325.75
2023-09-12T02:39:09.315Z,94324.63
2023-09-12T02:41:35.718Z,94328.19
2023-09-12T02:44:02.061Z,94337.50
2023-09-12T02:46:28.454Z,94333.16
2023-09-12T02:48:54.863Z,94331.03
2023-09-12T02:51:21.205Z,94332.97
2023-09-12T02:53:47.591Z,94324.75
2023-09-12T02:56:13.930Z,94327.81
2023-09-12T02:58:40.483Z,94324.59
2023-09-12T03:01:07.570Z,94321.38
2023-09-12T03:03:34.541Z,94332.31
2023-09-12T03:06:01.370Z,94322.81
2023-09-12T03:08:27.709Z,94323.13
2023-09-12T03:10:56.066Z,94330.81
2023-09-12T03:13:23.212Z,94339.00
2023-09-12T03:15:49.585Z,94335.78
2023-09-12T03:18:16.038Z,94333.69
2023-09-12T03:20:42.409Z,94331.28
2023-09-12T03:23:08.757Z,94330.81
2023-09-12T03:25:39.002Z,94328.38
2023-09-12T03:28:08.141Z,94323.25
2023-09-12T03:30:35.022Z,94316.47
2023-09-12T03:33:01.494Z,94316.94
2023-09-12T03:35:28.996Z,94319.81
2023-09-12T03:37:55.389Z,94325.38
2023-09-12T03:40:21.867Z,94324.56
2023-09-12T03:42:48.258Z,94321.84
2023-09-12T03:45:14.751Z,94321.84
2023-09-12T03:47:41.241Z,94315.88
2023-09-12T03:50:07.734Z,94320.66
2023-09-12T03:52:34.070Z,94307.13
2023-09-12T03:55:01.929Z,94301.50
2023-09-12T03:57:28.322Z,94301.16
2023-09-12T03:59:54.741Z,94311.56
2023-09-12T04:02:21.200Z,94322.47
2023-09-12T04:04:48.075Z,94309.13
2023-09-12T04:07:14.523Z,94306.72
2023-09-12T04:09:41.195Z,94304.00
2023-09-12T04:12:10.828Z,94307.53
2023-09-12T04:14:37.243Z,94303.19
2023-09-12T04:17:05.746Z,94311.69
2023-09-12T04:19:33.829Z,94312.50
2023-09-12T04:22:00.935Z,94310.88
2023-09-12T04:24:27.284Z,94314.75
2023-09-12T04:26:54.639Z,94317.16
2023-09-12T04:29:20.976Z,94322.28
2023-09-12T04:31:47.431Z,94319.56
2023-09-12T04:34:13.902Z,94321.97
2023-09-12T04:36:40.267Z,94322.59
2023-09-12T04:39:06.622Z,94319.69
2023-09-12T04:41:35.421Z,94314.56
2023-09-12T04:44:03.246Z,94307.50
2023-09-12T04:46:29.626Z,94305.88
2023-09-12T04:48:56.028Z,94307.91
2023-09-12T04:51:22.475Z,94301.16
2023-09-12T04:53:52.586Z,94320.09
2023-09-12T04:56:18.999Z,94316.56
2023-09-12T04:58:49.247Z,94319.28
2023-09-12T05:01:18.368Z,94327.97
2023-09-12T05:03:45.171Z,94326.34
2023-09-12T05:06:11.880Z,94334.53
2023-09-12T05:08:38.291Z,94334.22
2023-09-12T05:11:04.709Z,94332.31
2023-09-12T05:13:31.126Z,94326.53
2023-09-12T05:16:00.463Z,94323.47
2023-09-12T05:18:27.440Z,94326.69
2023-09-12T05:20:53.907Z,94318.34
2023-09-12T05:23:20.274Z,94318.03
2023-09-12T05:25:46.651Z,94324.75
2023-09-12T05:28:16.845Z,94324.03
2023-09-12T05:30:43.724Z,94331.41
2023-09-12T05:33:10.161Z,94334.16
2023-09-12T05:35:37.971Z,94334.53
2023-09-12T05:38:04.339Z,94334.41
2023-09-12T05:40:30.667Z,94331.03
2023-09-12T05:42:57.021Z,94334.78
2023-09-12T05:45:23.607Z,94337.38
2023-09-12T05:47:51.457Z,94334.19
2023-09-12T05:50:18.054Z,94335.06
2023-09-12T05:52:44.396Z,94338.22
2023-09-12T05:55:10.797Z,94333.53
2023-09-12T05:57:37.235Z,94325.41
2023-09-12T06:00:06.312Z,94333.00
2023-09-12T06:02:34.623Z,94334.00
2023-09-12T06:05:01.148Z,94327.34
2023-09-12T06:07:27.493Z,94334.63
2023-09-12T06:09:53.880Z,94332.06
2023-09-12T06:12:20.284Z,94328.16
2023-09-12T06:14:46.711Z,94318.50
2023-09-12T06:17:13.259Z,94322.44
2023-09-12T06:19:40.686Z,94321.41
2023-09-12T06:22:07.045Z,94328.94
2023-09-12T06:24:33.444Z,94325.09
2023-09-12T06:26:59.879Z,94325.94
2023-09-12T06:29:26.195Z,94319.03
2023-09-12T06:31:52.562Z,94326.16
2023-09-12T06:34:18.938Z,94318.97
2023-09-12T06:36:46.327Z,94323.25
2023-09-12T06:39:12.850Z,94320.69
2023-09-12T06:41:39.247Z,94326.13
2023-09-12T06:44:06.373Z,94317.16
2023-09-12T06:46:36.883Z,94322.38
2023-09-12T06:49:03.933Z,94316.59
2023-09-12T06:51:33.981Z,94318.94
2023-09-12T06:54:02.454Z,94310.94
2023-09-12T06:56:28.874Z,94319.47
2023-09-12T06:58:56.218Z,94324.56
2023-09-12T07:01:22.626Z,94316.25
2023-09-12T07:03:49.287Z,94317.63
2023-09-12T07:06:15.752Z,94312.72
2023-09-12T07:08:42.111Z,94309.84
2023-09-12T07:11:08.515Z,94304.97
2023-09-12T07:13:34.880Z,94305.06
2023-09-12T07:16:01.422Z,94300.28
2023-09-12T07:18:27.827Z,94308.25
2023-09-12T07:21:00.459Z,94301.59
2023-09-12T07:23:26.799Z,94311.56
2023-09-12T07:25:53.636Z,94316.94
2023-09-12T07:28:20.604Z,94314.97
2023-09-12T07:30:47.180Z,94309.59
2023-09-12T07:33:13.698Z,94315.00
2023-09-12T07:35:41.227Z,94313.22
2023-09-12T07:38:07.650Z,94313.00
2023-09-12T07:40:33.992Z,94315.22
2023-09-12T07:43:00.366Z,94317.72
2023-09-12T07:45:26.793Z,94315.19
2023-09-12T07:47:53.432Z,94312.50
2023-09-12T07:50:19.793Z,94320.22
2023-09-12T07:52:46.125Z,94322.03
2023-09-12T07:55:12.534Z,94327.75
2023-09-12T07:57:39.150Z,94325.28
2023-09-12T08:00:11.713Z,94333.00
2023-09-12T08:02:38.198Z,94331.88
2023-09-12T08:05:05.321Z,94337.34
2023-09-12T08:07:31.741Z,94338.25
2023-09-12T08:09:58.661Z,94330.09
2023-09-12T08:12:25.457Z,94327.97
2023-09-12T08:14:52.048Z,94345.25
2023-09-12T08:17:18.439Z,94342.56
2023-09-12T08:19:44.902Z,94344.19
2023-09-12T08:22:11.426Z,94346.13
2023-09-12T08:24:37.925Z,94355.75
2023-09-12T08:27:04.402Z,94356.66
2023-09-12T08:29:31.029Z,94362.06
2023-09-12T08:31:57.469Z,94365.63
2023-09-12T08:34:23.853Z,94360.81
2023-09-12T08:36:50.216Z,94357.59
2023-09-12T08:39:17.186Z,94351.34
2023-09-12T08:41:43.761Z,94354.56
2023-09-12T08:44:10.129Z,94358.66
2023-09-12T08:46:38.213Z,94357.56
2023-09-12T08:49:05.260Z,94359.88
2023-09-12T08:51:33.302Z,94354.09
2023-09-12T08:54:00.682Z,94357.06
2023-09-12T08:56:27.039Z,94356.50
2023-09-12T08:58:53.375Z,94349.91
2023-09-12T09:01:19.770Z,94356.03
2023-09-12T09:03:46.474Z,94345.88
2023-09-12T09:06:13.079Z,94345.66
2023-09-12T09:08:39.999Z,94344.25
2023-09-12T09:11:09.450Z,94352.25
2023-09-12T09:13:35.784Z,94349.28
2023-09-12T09:16:22.154Z,94351.91
2023-09-12T09:18:56.100Z,94349.28
2023-09-12T09:21:26.533Z,94348.41
2023-09-12T09:23:53.467Z,94342.50
2023-09-12T09:26:19.881Z,94337.19
2023-09-12T09:28:46.293Z,94335.59
2023-09-12T09:31:13.099Z,94338.16
2023-09-12T09:33:41.891Z,94338.63
2023-09-12T09:36:08.808Z,94343.44
2023-09-12T09:38:35.837Z,94342.72
2023-09-12T09:41:04.755Z,94340.09
2023-09-12T09:43:32.874Z,94339.38
2023-09-12T09:45:59.492Z,94334.75
2023-09-12T09:48:28.214Z,94339.97
2023-09-12T09:50:55.298Z,94330.59
2023-09-12T09:53:27.940Z,94331.59
2023-09-12T09:56:02.050Z,94327.28
2023-09-12T09:58:28.379Z,94322.94
2023-09-12T10:00:55.213Z,94326.94
2023-09-12T10:03:21.770Z,94323.28
2023-09-12T10:05:49.342Z,94324.28
2023-09-12T10:08:18.318Z,94314.88
2023-09-12T10:10:44.754Z,94323.09
2023-09-12T10:13:11.147Z,94321.59
2023-09-12T10:15:37.556Z,94322.53
2023-09-12T10:18:14.348Z,94322.31
2023-09-12T10:20:51.845Z,94316.94
2023-09-12T10:23:24.415Z,94304.34
2023-09-12T10:25:50.921Z,94309.38
2023-09-12T10:28:17.311Z,94308.81
2023-09-12T10:30:43.752Z,94309.63
2023-09-12T10:33:10.286Z,94319.09
2023-09-12T10:35:36.642Z,94308.41
2023-09-12T10:38:06.172Z,94299.66
2023-09-12T10:40:32.738Z,94299.66
2023-09-12T10:42:59.114Z,94298.13
2023-09-12T10:45:25.568Z,94298.91
2023-09-12T10:47:52.118Z,94291.97
2023-09-12T10:50:18.627Z,94283.00
2023-09-12T10:52:45.714Z,94297.63
2023-09-12T10:55:17.136Z,94292.75
2023-09-12T10:58:03.544Z,94296.56
2023-09-12T11:00:29.959Z,94292.53
2023-09-12T11:02:56.318Z,94287.22
2023-09-12T11:05:28.857Z,94292.22
2023-09-12T11:08:01.530Z,94290.63
2023-09-12T11:10:28.217Z,94289.81
2023-09-12T11:12:55.055Z,94281.94
2023-09-12T11:15:22.886Z,94290.66
2023-09-12T11:17:49.814Z,94297.00
2023-09-12T11:20:16.445Z,94297.47
2023-09-12T11:22:43.779Z,94300.28
2023-09-12T11:25:20.633Z,94299.47
2023-09-12T11:28:03.654Z,94305.03
2023-09-12T11:30:32.061Z,94304.69
2023-09-12T11:32:58.878Z,94292.94
2023-09-12T11:35:29.137Z,94300.88
2023-09-12T11:37:58.747Z,94298.41
2023-09-12T11:40:46.273Z,94297.00
2023-09-12T11:43:20.629Z,94293.75
2023-09-12T11:45:47.074Z,94289.38
2023-09-12T11:48:13.430Z,94296.59
2023-09-12T11:50:42.156Z,94303.06
2023-09-12T11:53:11.804Z,94296.75
2023-09-12T11:55:47.810Z,94291.19
2023-09-12T11:58:15.620Z,94291.84
2023-09-12T12:00:47.390Z,94288.13
2023-09-12T12:03:14.210Z,94279.22
2023-09-12T12:05:42.308Z,94288.63
2023-09-12T12:08:27.920Z,94292.50
2023-09-12T12:10:56.226Z,94286.53
2023-09-12T12:13:22.587Z,94285.34
2023-09-12T12:15:49.108Z,94294.88
2023-09-12T12:18:15.644Z,94294.09
2023-09-12T12:20:42.385Z,94292.56
2023-09-12T12:23:08.714Z,94293.81
2023-09-12T12:25:35.610Z,94299.03
2023-09-12T12:28:02.377Z,94304.56
2023-09-12T12:30:31.222Z,94296.56
2023-09-12T12:33:13.038Z,94298.91
2023-09-12T12:35:53.226Z,94291.03
2023-09-12T12:38:21.398Z,94300.06
2023-09-12T12:40:49.688Z,94300.72
2023-09-12T12:43:17.154Z,94298.56
2023-09-12T12:45:52.698Z,94297.34
2023-09-12T12:48:19.234Z,94287.81
2023-09-12T12:50:45.626Z,94283.38
2023-09-12T12:53:12.235Z,94290.44
2023-09-12T12:55:39.996Z,94282.13
2023-09-12T12:58:06.368Z,94282.94
2023-09-12T13:00:33.052Z,94286.06
2023-09-12T13:02:59.450Z,94283.28
2023-09-12T13:05:25.822Z,94291.22
2023-09-12T13:07:52.390Z,94280.53
2023-09-12T13:10:19.141Z,94288.03
2023-09-12T13:12:48.511Z,94287.31
2023-09-12T13:15:15.118Z,94276.25
2023-09-12T13:17:41.615Z,94279.03
2023-09-12T13:20:09.526Z,94277.38
2023-09-12T13:22:36.195Z,94273.50
2023-09-12T13:25:03.288Z,94270.25
2023-09-12T13:27:30.171Z,94264.00
2023-09-12T13:29:58.750Z,94260.00
2023-09-12T13:32:26.621Z,94262.41
2023-09-12T13:34:53.710Z,94254.91
2023-09-12T13:37:20.315Z,94258.13
2023-09-12T13:39:52.698Z,94261.25
2023-09-12T13:42:22.242Z,94257.31
2023-09-12T13:44:48.743Z,94253.38
2023-09-12T13:47:22.274Z,94261.31
2023-09-12T13:49:49.029Z,94260.50
2023-09-12T13:52:16.027Z,94262.91
2023-09-12T13:54:42.411Z,94269.59
2023-09-12T13:57:08.806Z,94268.44
2023-09-12T13:59:43.242Z,94271.63
2023-09-12T14:02:11.250Z,94275.63
2023-09-12T14:04:37.949Z,94270.53
2023-09-12T14:07:05.255Z,94270.19
2023-09-12T14:09:32.391Z,94270.19
2023-09-12T14:11:59.023Z,94261.88
2023-09-12T14:14:26.164Z,94274.47
2023-09-12T14:16:52.698Z,94267.31
2023-09-12T14:19:20.682Z,94256.78
2023-09-12T14:21:49.283Z,94259.59
2023-09-12T14:24:16.379Z,94257.63
2023-09-12T14:26:42.976Z,94260.34
2023-09-12T14:29:09.532Z,94258.28
2023-09-12T14:31:37.969Z,94258.28
2023-09-12T14:34:06.249Z,94252.31
2023-09-12T14:36:32.735Z,94245.13
2023-09-12T14:38:59.129Z,94238.00
2023-09-12T14:41:25.466Z,94236.97
2023-09-12T14:43:51.863Z,94226.00
2023-09-12T14:46:18.346Z,94218.94
2023-09-12T14:48:54.436Z,94222.25
2023-09-12T14:51:30.885Z,94220.41
2023-09-12T14:53:59.311Z,94223.59
2023-09-12T14:56:25.641Z,94218.00
2023-09-12T14:58:52.060Z,94216.84
2023-09-12T15:01:18.482Z,94218.34
2023-09-12T15:03:45.272Z,94217.28
2023-09-12T15:06:11.877Z,94220.56
2023-09-12T15:08:38.280Z,94226.56
2023-09-12T15:11:05.319Z,94219.91
2023-09-12T15:13:31.671Z,94217.59
2023-09-12T15:15:58.048Z,94216.44
2023-09-12T15:18:24.554Z,94210.09
2023-09-12T15:20:52.481Z,94212.25
2023-09-12T15:23:19.058Z,94209.06
2023-09-12T15:25:45.382Z,94213.34
2023-09-12T15:28:11.783Z,94217.00
2023-09-12T15:30:38.127Z,94230.06
2023-09-12T15:33:04.545Z,94246.38
2023-09-12T15:35:30.939Z,94252.69
2023-09-12T15:37:57.280Z,94265.78
2023-09-12T15:40:23.635Z,94265.31
2023-09-12T15:42:50.028Z,94253.88
2023-09-12T15:45:17.193Z,94245.56
2023-09-12T15:47:43.633Z,94248.31
2023-09-12T15:50:10.197Z,94257.22
2023-09-12T15:52:38.688Z,94259.34
2023-09-12T15:55:06.096Z,94271.28
2023-09-12T15:57:32.490Z,94278.50
2023-09-12T16:00:00.387Z,94293.97
2023-09-12T16:02:26.756Z,94297.00
2023-09-12T16:04:53.243Z,94294.03
2023-09-12T16:07:19.652Z,94292.69
2023-09-12T16:09:46.057Z,94296.53
2023-09-12T16:12:12.390Z,94309.81
2023-09-12T16:14:38.724Z,94311.06
2023-09-12T16:17:05.221Z,94293.56
2023-09-12T16:19:31.608Z,94292.06
2023-09-12T16:21:58.197Z,94287.53
2023-09-12T16:24:24.717Z,94279.72
2023-09-12T16:26:51.327Z,94283.78
2023-09-12T16:29:17.747Z,94278.47
2023-09-12T16:31:44.139Z,94279.41
2023-09-12T16:34:10.614Z,94285.13
2023-09-12T16:36:37.060Z,94276.47
2023-09-12T16:39:03.513Z,94275.31
2023-09-12T16:41:29.852Z,94280.41
2023-09-12T16:43:57.105Z,94288.25
2023-09-12T16:46:23.492Z,94283.53
2023-09-12T16:48:49.949Z,94274.44
2023-09-12T16:51:16.380Z,94288.59
2023-09-12T16:53:43.073Z,94287.38
2023-09-12T16:56:09.548Z,94290.38
2023-09-12T16:58:37.072Z,94287.91
2023-09-12T17:01:03.513Z,94294.81
2023-09-12T17:03:30.037Z,94300.63
2023-09-12T17:05:56.806Z,94307.56
2023-09-12T17:08:23.543Z,94299.81
2023-09-12T17:10:49.888Z,94309.50
2023-09-12T17:13:16.300Z,94314.00
2023-09-12T17:15:42.673Z,94308.28
2023-09-12T17:18:09.070Z,94309.00
2023-09-12T17:20:35.457Z,94314.22
2023-09-12T17:23:01.809Z,94295.81
2023-09-12T17:25:28.158Z,94294.59
2023-09-12T17:27:54.669Z,94303.69
2023-09-12T17:30:22.802Z,94306.91
2023-09-12T17:32:49.452Z,94314.50
2023-09-12T17:35:15.793Z,94317.41
2023-09-12T17:37:42.148Z,94318.78
2023-09-12T17:40:08.850Z,94317.91
2023-09-12T17:42:35.692Z,94314.94
2023-09-12T17:45:02.255Z,94314.00
2023-09-12T17:47:28.616Z,94327.13
2023-09-12T17:49:55.276Z,94318.22
2023-09-12T17:52:21.625Z,94321.34
2023-09-12T17:54:48.004Z,94331.53
2023-09-12T17:57:14.382Z,94338.31
2023-09-12T17:59:41.891Z,94345.16
2023-09-12T18:02:08.422Z,94353.41
2023-09-12T18:04:35.078Z,94371.88
2023-09-12T18:07:02.434Z,94405.22
2023-09-12T18:09:29.083Z,94408.88
2023-09-12T18:11:56.382Z,94395.72
2023-09-12T18:14:22.936Z,94399.38
2023-09-12T18:16:49.494Z,94366.13
2023-09-12T18:19:15.868Z,94367.03
2023-09-12T18:21:42.219Z,94362.81
2023-09-12T18:24:08.553Z,94350.91
2023-09-12T18:26:34.907Z,94340.66
2023-09-12T18:29:02.015Z,94330.56
2023-09-12T18:31:28.388Z,94335.59
2023-09-12T18:33:54.852Z,94341.88
2023-09-12T18:36:22.990Z,94352.84
2023-09-12T18:38:52.712Z,94364.91
2023-09-12T18:41:19.501Z,94371.81
2023-09-12T18:43:46.169Z,94371.97
2023-09-12T18:46:13.069Z,94371.78
2023-09-12T18:48:40.834Z,94385.03
2023-09-12T18:51:07.823Z,94392.25
2023-09-12T18:53:34.242Z,94395.50
2023-09-12T18:56:00.928Z,94409.50
2023-09-12T18:58:27.380Z,94437.06
2023-09-12T19:00:53.905Z,94437.06
2023-09-12T19:03:20.479Z,94441.91
2023-09-12T19:05:47.214Z,94445.94
2023-09-12T19:08:14.004Z,94455.28
2023-09-12T19:10:40.388Z,94459.44
2023-09-12T19:13:08.924Z,94458.97
2023-09-12T19:15:36.911Z,94478.00
2023-09-12T19:18:03.735Z,94506.38
2023-09-12T19:20:30.168Z,94532.63
2023-09-12T19:22:56.508Z,94540.53
2023-09-12T19:25:22.932Z,94525.19
2023-09-12T19:27:49.368Z,94541.84
2023-09-12T19:30:15.729Z,94520.06
2023-09-12T19:32:42.175Z,94531.97
2023-09-12T19:35:08.784Z,94521.00
2023-09-12T19:37:35.143Z,94513.59
2023-09-12T19:40:01.507Z,94529.44
2023-09-12T19:42:27.917Z,94548.16
2023-09-12T19:44:54.285Z,94548.38
2023-09-12T19:47:20.865Z,94564.50
2023-09-12T19:49:47.470Z,94580.84
2023-09-12T19:52:14.065Z,94591.06
2023-09-12T19:54:40.672Z,94579.34
2023-09-12T19:57:07.058Z,94575.41
2023-09-12T19:59:33.838Z,94572.66
2023-09-12T20:02:00.542Z,94559.63
2023-09-12T20:04:29.025Z,94555.03
2023-09-12T20:06:55.712Z,94549.97
2023-09-12T20:09:22.260Z,94544.22
2023-09-12T20:11:48.965Z,94549.63
2023-09-12T20:14:15.341Z,94562.00
2023-09-12T20:16:41.941Z,94569.59
2023-09-12T20:19:09.150Z,94575.16
2023-09-12T20:21:36.007Z,94565.19
2023-09-12T20:24:04.751Z,94561.34
2023-09-12T20:26:31.080Z,94541.47
2023-09-12T20:28:57.445Z,94537.81
2023-09-12T20:31:23.927Z,94532.06
2023-09-12T20:33:50.381Z,94537.53
2023-09-12T20:36:16.860Z,94533.41
2023-09-12T20:38:46.710Z,94548.38
2023-09-12T20:41:13.032Z,94542.94
2023-09-12T20:43:39.364Z,94550.44
2023-09-12T20:46:07.827Z,94550.94
2023-09-12T20:48:38.863Z,94544.88
2023-09-12T20:51:09.397Z,94539.09
2023-09-12T20:53:35.730Z,94552.84
2023-09-12T20:56:02.151Z,94560.91
2023-09-12T20:58:28.807Z,94558.59
2023-09-12T21:00:56.528Z,94562.31
2023-09-12T21:03:23.076Z,94573.94
2023-09-12T21:05:49.464Z,94579.88
2023-09-12T21:08:15.872Z,94574.16
2023-09-12T21:10:42.223Z,94568.69
2023-09-12T21:13:08.625Z,94559.69
2023-09-12T21:15:35.061Z,94571.19
2023-09-12T21:18:01.527Z,94588.00
2023-09-12T21:20:27.965Z,94560.00
2023-09-12T21:22:54.906Z,94557.69
2023-09-12T21:25:21.280Z,94543.63
2023-09-12T21:27:47.685Z,94546.09
2023-09-12T21:30:14.133Z,94554.84
2023-09-12T21:32:40.536Z,94566.38
2023-09-12T21:35:11.817Z,94551.53
2023-09-12T21:37:38.234Z,94538.69
2023-09-12T21:40:04.818Z,94565.06
2023-09-12T21:42:31.207Z,94574.88
2023-09-12T21:44:57.543Z,94580.63
2023-09-12T21:47:23.973Z,94567.50
2023-09-12T21:49:50.421Z,94572.75
2023-09-12T21:52:16.774Z,94570.91
2023-09-12T21:54:43.232Z,94559.19
2023-09-12T21:57:09.635Z,94564.16
2023-09-12T21:59:35.956Z,94535.84
2023-09-12T22:02:02.853Z,94543.53
2023-09-12T22:04:29.393Z,94527.53
2023-09-12T22:06:55.815Z,94538.38
2023-09-12T22:09:22.194Z,94555.13
2023-09-12T22:11:48.608Z,94534.81
2023-09-12T22:14:14.956Z,94531.53
2023-09-12T22:16:41.383Z,94530.81
2023-09-12T22:19:07.797Z,94528.78
2023-09-12T22:21:34.182Z,94530.28
2023-09-12T22:24:00.529Z,94531.78
2023-09-12T22:26:26.935Z,94527.91
2023-09-12T22:28:53.272Z,94520.84
2023-09-12T22:31:19.713Z,94521.66
2023-09-12T22:33:46.398Z,94514.56
2023-09-12T22:36:19.355Z,94508.31
2023-09-12T22:38:46.512Z,94505.88
2023-09-12T22:41:13.273Z,94500.25
2023-09-12T22:43:39.621Z,94494.78
2023-09-12T22:46:06.033Z,94496.72
2023-09-12T22:48:32.404Z,94499.44
2023-09-12T22:50:58.791Z,94492.19
2023-09-12T22:53:25.111Z,94496.63
2023-09-12T22:55:51.443Z,94500.09
2023-09-12T22:58:17.786Z,94499.06
2023-09-12T23:00:44.563Z,94489.88
2023-09-12T23:03:12.086Z,94498.00
2023-09-12T23:05:38.515Z,94494.28
2023-09-12T23:08:05.000Z,94479.94
2023-09-12T23:10:31.448Z,94489.25
2023-09-12T23:12:58.015Z,94486.59
2023-09-12T23:15:24.591Z,94483.38
2023-09-12T23:17:51.116Z,94485.31
2023-09-12T23:20:17.480Z,94484.00
2023-09-12T23:22:44.490Z,94477.56
2023-09-12T23:25:12.672Z,94478.34
2023-09-12T23:27:39.497Z,94472.59
2023-09-12T23:30:06.088Z,94459.25
2023-09-12T23:32:32.596Z,94476.44
2023-09-12T23:34:58.970Z,94463.59
2023-09-12T23:37:25.335Z,94466.03
2023-09-12T23:39:51.781Z,94469.25
2023-09-12T23:42:18.769Z,94472.81
2023-09-12T23:44:45.105Z,94469.09
2023-09-12T23:47:11.504Z,94479.19
2023-09-12T23:49:37.945Z,94464.25
2023-09-12T23:52:04.717Z,94470.81
2023-09-12T23:54:31.076Z,94471.31
2023-09-12T23:56:57.399Z,94485.94
2023-09-12T23:59:23.780Z,94480.50
